Time;durP1;ratioP1;P1;durP2;ratioP2;P2;SDS_P1;SDS_P2;PMS_P1;PMS_P2;Temp;Humidity;BMP_temperature;BMP_pressure;BME280_temperature;BME280_humidity;BME280_pressure;Samples;Min_cycle;Max_cycle;Signal;HPM_P1;HPM_P2
2021/06/30 00:02:17;;;;;;;8.53;3.40;;;17.00;99.90;;;;;;5030945;28;20410;-51
2021/06/30 00:04:42;;;;;;;6.45;3.25;;;17.10;99.90;;;;;;5028547;28;20419;-49
2021/06/30 00:07:08;;;;;;;10.60;3.77;;;17.10;99.90;;;;;;4948159;28;1797193;-49
2021/06/30 00:09:34;;;;;;;8.10;3.30;;;17.00;99.90;;;;;;5031179;28;20395;-50
2021/06/30 00:12:00;;;;;;;9.17;3.50;;;17.10;99.90;;;;;;5038413;28;20881;-50
2021/06/30 00:14:27;;;;;;;8.63;3.53;;;17.10;99.90;;;;;;5049998;28;20439;-52
2021/06/30 00:16:53;;;;;;;8.68;4.20;;;17.00;99.90;;;;;;5049483;28;20440;-50
2021/06/30 00:19:18;;;;;;;7.75;3.25;;;16.90;99.90;;;;;;5050029;28;20838;-49
2021/06/30 00:21:45;;;;;;;8.23;3.53;;;16.80;99.90;;;;;;5048972;28;20432;-49
2021/06/30 00:24:10;;;;;;;6.32;3.50;;;16.80;99.90;;;;;;5049832;28;20921;-50
2021/06/30 00:26:37;;;;;;;10.20;3.67;;;16.90;99.90;;;;;;5049259;28;20421;-50
2021/06/30 00:29:07;;;;;;;7.47;3.27;;;16.90;99.90;;;;;;5033840;28;20398;-50
2021/06/30 00:31:33;;;;;;;8.18;3.33;;;16.90;99.90;;;;;;5038319;28;20395;-50
2021/06/30 00:34:03;;;;;;;9.68;3.60;;;16.90;99.90;;;;;;5029618;28;20440;-49
2021/06/30 00:36:35;;;;;;;7.40;3.35;;;16.80;99.90;;;;;;5028927;28;20418;-52
2021/06/30 00:39:05;;;;;;;7.45;3.58;;;16.70;99.90;;;;;;5029692;28;20383;-50
2021/06/30 00:41:32;;;;;;;6.80;3.45;;;16.70;99.90;;;;;;5028934;28;20913;-51
2021/06/30 00:43:58;;;;;;;12.65;3.80;;;16.60;99.90;;;;;;5029609;28;20383;-51
2021/06/30 00:46:29;;;;;;;10.70;3.55;;;16.70;99.90;;;;;;5031730;28;20422;-50
2021/06/30 00:48:55;;;;;;;11.00;3.40;;;16.60;99.90;;;;;;5040155;28;20391;-50
2021/06/30 00:51:21;;;;;;;8.37;3.23;;;16.70;99.90;;;;;;5038033;28;20508;-49
2021/06/30 00:53:47;;;;;;;7.90;2.90;;;16.80;99.90;;;;;;5027592;28;20931;-51
2021/06/30 00:56:14;;;;;;;8.80;2.90;;;16.80;99.90;;;;;;5029527;28;20383;-49
2021/06/30 00:58:40;;;;;;;5.38;2.70;;;16.90;99.90;;;;;;5028756;28;20757;-50
2021/06/30 01:01:06;;;;;;;11.00;3.20;;;16.90;99.90;;;;;;5029652;28;20390;-50
2021/06/30 01:03:32;;;;;;;12.00;3.20;;;17.00;99.90;;;;;;5028887;28;20402;-50
2021/06/30 01:05:57;;;;;;;10.30;2.67;;;17.00;99.90;;;;;;5029414;28;20430;-52
2021/06/30 01:08:23;;;;;;;8.57;2.70;;;16.90;99.90;;;;;;5029485;28;20406;-51
2021/06/30 01:10:49;;;;;;;5.10;2.60;;;16.80;99.90;;;;;;5028890;28;20424;-51
2021/06/30 01:13:14;;;;;;;8.87;2.70;;;16.80;99.90;;;;;;5029609;28;20539;-52
2021/06/30 01:15:56;;;;;;;6.72;2.70;;;16.70;99.90;;;;;;5028452;28;20466;-49
2021/06/30 01:18:23;;;;;;;4.10;2.13;;;16.80;99.90;;;;;;5029545;28;20383;-49
2021/06/30 01:20:50;;;;;;;6.88;2.45;;;16.80;99.90;;;;;;5028392;28;21002;-49
2021/06/30 01:23:16;;;;;;;5.35;2.28;;;16.80;99.90;;;;;;5029529;28;20379;-50
2021/06/30 01:25:42;;;;;;;6.40;2.50;;;16.70;99.90;;;;;;5034913;28;20459;-49
2021/06/30 01:28:08;;;;;;;6.45;2.20;;;16.70;99.90;;;;;;5044071;28;20738;-49
2021/06/30 01:30:34;;;;;;;6.05;2.20;;;16.60;99.90;;;;;;5028595;28;20410;-49
2021/06/30 01:33:00;;;;;;;7.10;2.00;;;16.50;99.90;;;;;;5029058;28;20474;-49
2021/06/30 01:35:26;;;;;;;6.30;1.80;;;16.60;99.90;;;;;;5028923;28;20441;-49
2021/06/30 01:37:53;;;;;;;4.35;1.88;;;16.50;99.90;;;;;;5029523;28;20422;-48
2021/06/30 01:40:20;;;;;;;5.95;2.35;;;16.60;99.90;;;;;;5029602;28;20379;-48
2021/06/30 01:42:47;;;;;;;5.40;1.90;;;16.60;99.90;;;;;;5028371;28;20382;-51
2021/06/30 01:45:14;;;;;;;7.10;1.77;;;16.50;99.90;;;;;;5029188;28;20488;-49
2021/06/30 01:47:40;;;;;;;3.85;1.40;;;16.50;99.90;;;;;;5028465;28;20383;-52
2021/06/30 01:50:07;;;;;;;5.00;1.70;;;16.50;99.90;;;;;;5028996;28;20386;-49
2021/06/30 01:52:33;;;;;;;4.20;1.50;;;16.50;99.90;;;;;;5028476;28;20509;-52
2021/06/30 01:55:00;;;;;;;4.75;1.60;;;16.40;99.90;;;;;;5029024;28;20391;-51
2021/06/30 01:57:26;;;;;;;4.70;1.70;;;16.20;99.90;;;;;;5028801;28;20386;-49
2021/06/30 01:59:51;;;;;;;3.70;1.70;;;16.30;99.90;;;;;;5028431;28;20383;-49
2021/06/30 02:02:17;;;;;;;7.10;2.20;;;16.30;99.90;;;;;;5027761;28;20380;-50
2021/06/30 02:04:53;;;;;;;4.60;1.70;;;16.30;99.90;;;;;;5028809;28;20411;-50
2021/06/30 02:07:19;;;;;;;4.05;1.80;;;16.30;99.90;;;;;;5032409;28;20411;-49
2021/06/30 02:09:45;;;;;;;7.50;1.80;;;16.30;99.90;;;;;;5031962;28;20383;-49
2021/06/30 02:12:10;;;;;;;4.03;1.50;;;16.30;99.90;;;;;;5032579;28;20888;-49
2021/06/30 02:14:36;;;;;;;7.53;1.97;;;16.20;99.90;;;;;;5031535;28;20384;-51
2021/06/30 02:17:02;;;;;;;5.40;1.40;;;16.20;99.90;;;;;;5032718;28;20471;-50
2021/06/30 02:19:28;;;;;;;4.70;1.60;;;16.00;99.90;;;;;;5033447;28;20393;-49
2021/06/30 02:21:53;;;;;;;5.30;1.70;;;15.90;99.90;;;;;;5032458;28;20517;-49
2021/06/30 02:24:19;;;;;;;5.72;1.90;;;15.90;99.90;;;;;;5032069;28;20418;-49
2021/06/30 02:26:45;;;;;;;6.05;1.80;;;15.80;99.90;;;;;;5031513;28;20841;-49
2021/06/30 02:29:11;;;;;;;5.10;1.50;;;15.80;99.90;;;;;;5032441;28;20486;-49
2021/06/30 02:31:36;;;;;;;8.00;1.97;;;15.90;99.90;;;;;;5031175;28;20462;-49
2021/06/30 02:34:02;;;;;;;5.53;1.80;;;15.90;99.90;;;;;;5032138;28;20748;-50
2021/06/30 02:36:28;;;;;;;3.92;1.70;;;15.80;99.90;;;;;;5031964;28;20387;-49
2021/06/30 02:38:57;;;;;;;4.53;1.60;;;15.80;99.90;;;;;;5031137;28;20419;-49
2021/06/30 02:41:22;;;;;;;4.20;1.60;;;15.70;99.90;;;;;;5031839;28;20442;-50
2021/06/30 02:43:49;;;;;;;4.20;1.70;;;15.70;99.90;;;;;;5031240;28;20818;-50
2021/06/30 02:46:15;;;;;;;3.20;1.20;;;15.70;99.90;;;;;;5031462;28;20421;-51
2021/06/30 02:48:41;;;;;;;4.50;1.50;;;15.60;99.90;;;;;;5031144;28;20371;-50
2021/06/30 02:51:07;;;;;;;3.20;1.00;;;15.60;99.90;;;;;;5031921;28;20403;-48
2021/06/30 02:53:32;;;;;;;5.40;1.10;;;15.50;99.90;;;;;;5031234;28;20478;-52
2021/06/30 02:56:01;;;;;;;3.70;1.08;;;15.50;99.90;;;;;;5031888;28;20837;-49
2021/06/30 02:58:27;;;;;;;3.30;1.17;;;15.50;99.90;;;;;;5031759;28;20383;-50
2021/06/30 03:00:53;;;;;;;3.58;1.00;;;15.50;99.90;;;;;;5030982;28;21006;-51
2021/06/30 03:03:18;;;;;;;3.93;1.27;;;15.40;99.90;;;;;;5031630;28;20383;-49
2021/06/30 03:05:44;;;;;;;4.22;1.00;;;15.40;99.90;;;;;;5030744;28;20901;-48
2021/06/30 03:08:09;;;;;;;4.60;0.90;;;15.40;99.90;;;;;;5031178;28;20398;-48
2021/06/30 03:10:35;;;;;;;3.20;0.90;;;15.40;99.90;;;;;;5030541;28;20383;-50
2021/06/30 03:13:01;;;;;;;4.80;1.00;;;15.40;99.90;;;;;;5031447;28;20391;-49
2021/06/30 03:15:27;;;;;;;7.50;1.10;;;15.30;99.90;;;;;;5031145;28;20705;-48
2021/06/30 03:17:52;;;;;;;4.60;0.90;;;15.30;99.90;;;;;;5029651;28;20375;-48
2021/06/30 03:20:18;;;;;;;3.10;0.80;;;15.20;99.90;;;;;;5031470;28;20391;-49
2021/06/30 03:22:44;;;;;;;3.20;0.70;;;15.20;99.90;;;;;;5030261;28;20899;-51
2021/06/30 03:25:12;;;;;;;3.38;0.90;;;15.30;99.90;;;;;;5031034;28;20615;-49
2021/06/30 03:27:38;;;;;;;3.92;0.80;;;15.30;99.90;;;;;;5030506;28;20390;-49
2021/06/30 03:30:06;;;;;;;3.60;0.75;;;15.40;99.90;;;;;;5030721;28;20386;-51
2021/06/30 03:32:31;;;;;;;3.90;0.90;;;15.50;99.90;;;;;;5027924;28;20383;-51
2021/06/30 03:34:57;;;;;;;3.87;0.80;;;15.30;99.90;;;;;;5030472;28;20395;-50
2021/06/30 03:37:23;;;;;;;3.08;0.60;;;15.20;99.90;;;;;;5030958;28;20453;-50
2021/06/30 03:39:48;;;;;;;3.10;0.80;;;15.20;99.90;;;;;;5028842;28;20397;-49
2021/06/30 03:42:14;;;;;;;2.90;0.63;;;15.20;99.90;;;;;;5030860;28;20399;-50
2021/06/30 03:44:40;;;;;;;2.90;0.70;;;15.10;99.90;;;;;;5030216;28;20766;-49
2021/06/30 03:47:06;;;;;;;3.45;0.80;;;15.20;99.90;;;;;;5030998;28;20841;-51
2021/06/30 03:49:31;;;;;;;3.85;1.10;;;15.30;99.90;;;;;;5030681;28;20386;-51
2021/06/30 03:51:57;;;;;;;2.93;0.70;;;15.30;99.90;;;;;;5029840;28;20418;-49
2021/06/30 03:54:26;;;;;;;3.72;0.60;;;15.20;99.90;;;;;;5030206;28;20753;-49
2021/06/30 03:56:52;;;;;;;3.00;0.63;;;15.10;99.90;;;;;;5029912;28;20573;-50
2021/06/30 03:59:18;;;;;;;3.00;0.70;;;15.00;99.90;;;;;;5030514;28;20390;-49
2021/06/30 04:01:44;;;;;;;3.30;0.70;;;15.00;99.90;;;;;;5029401;28;20877;-49
2021/06/30 04:04:12;;;;;;;4.00;0.50;;;15.00;99.90;;;;;;5030344;28;20403;-49
2021/06/30 04:06:39;;;;;;;3.45;0.73;;;14.80;99.90;;;;;;5029566;28;20931;-49
2021/06/30 04:09:05;;;;;;;2.90;0.70;;;14.90;99.90;;;;;;5030472;28;20375;-49
2021/06/30 04:11:31;;;;;;;3.37;0.90;;;15.00;99.90;;;;;;5030098;28;20410;-50
2021/06/30 04:13:56;;;;;;;4.20;0.68;;;15.10;99.90;;;;;;5038004;28;20406;-48
2021/06/30 04:16:22;;;;;;;2.80;0.60;;;15.00;99.90;;;;;;5042720;28;20393;-48
2021/06/30 04:18:48;;;;;;;2.90;0.80;;;14.90;99.90;;;;;;5039370;28;20391;-49
2021/06/30 04:21:14;;;;;;;3.60;0.80;;;14.90;99.90;;;;;;5048711;28;20855;-49
2021/06/30 04:23:40;;;;;;;4.10;1.00;;;15.00;99.90;;;;;;5049368;28;20470;-49
2021/06/30 04:26:05;;;;;;;2.90;0.80;;;14.90;99.90;;;;;;5049817;28;20898;-49
2021/06/30 04:28:31;;;;;;;6.03;1.10;;;14.90;99.90;;;;;;5045772;28;20411;-49
2021/06/30 04:30:57;;;;;;;4.40;0.90;;;14.90;99.90;;;;;;5032808;28;20406;-51
2021/06/30 04:33:22;;;;;;;3.90;1.13;;;15.00;99.90;;;;;;5043684;28;20763;-49
2021/06/30 04:35:48;;;;;;;3.47;0.90;;;15.00;99.90;;;;;;5040141;28;20480;-50
2021/06/30 04:38:14;;;;;;;4.80;1.30;;;15.10;99.90;;;;;;5029882;28;20383;-51
2021/06/30 04:40:39;;;;;;;5.20;1.00;;;15.30;99.90;;;;;;5029293;28;20387;-49
2021/06/30 04:43:05;;;;;;;2.80;0.60;;;15.40;99.90;;;;;;5030087;28;20402;-50
2021/06/30 04:45:31;;;;;;;3.10;0.70;;;15.40;99.90;;;;;;5029524;28;20477;-50
2021/06/30 04:47:57;;;;;;;3.45;0.90;;;15.40;99.90;;;;;;5028839;28;20482;-50
2021/06/30 04:50:22;;;;;;;3.10;0.70;;;15.40;99.90;;;;;;5029877;28;20407;-49
2021/06/30 04:52:48;;;;;;;4.70;1.30;;;15.50;99.90;;;;;;5028825;28;20416;-49
2021/06/30 04:55:14;;;;;;;3.27;0.90;;;15.60;99.90;;;;;;5029746;28;20387;-49
2021/06/30 04:57:39;;;;;;;3.10;0.80;;;15.70;99.90;;;;;;5028904;28;20449;-49
2021/06/30 05:00:08;;;;;;;3.10;0.80;;;15.70;99.90;;;;;;5029910;28;20382;-49
2021/06/30 05:02:34;;;;;;;3.70;0.88;;;15.90;99.90;;;;;;5029215;28;20380;-52
2021/06/30 05:04:59;;;;;;;3.15;0.77;;;16.00;99.90;;;;;;5029137;28;20469;-49
2021/06/30 05:07:25;;;;;;;3.10;0.60;;;16.00;99.90;;;;;;5029934;28;20403;-49
2021/06/30 05:09:51;;;;;;;3.40;0.70;;;16.20;99.90;;;;;;5028815;28;20864;-49
2021/06/30 05:12:17;;;;;;;3.60;0.82;;;16.30;99.90;;;;;;5029356;28;20390;-48
2021/06/30 05:14:43;;;;;;;4.50;0.90;;;16.40;99.90;;;;;;5028808;28;20514;-48
2021/06/30 05:17:09;;;;;;;3.60;0.80;;;16.60;99.90;;;;;;5029326;28;20474;-48
2021/06/30 05:19:34;;;;;;;3.40;0.70;;;16.70;99.90;;;;;;5031751;28;20385;-52
2021/06/30 05:22:00;;;;;;;3.50;0.80;;;16.50;99.90;;;;;;5034279;28;20964;-49
2021/06/30 05:24:25;;;;;;;5.00;1.10;;;16.40;99.90;;;;;;5049228;28;20862;-48
2021/06/30 05:26:52;;;;;;;4.10;0.80;;;16.50;99.90;;;;;;5047305;28;20389;-48
2021/06/30 05:29:17;;;;;;;3.70;0.70;;;16.50;99.90;;;;;;5049297;28;20716;-48
2021/06/30 05:31:43;;;;;;;3.30;0.70;;;16.30;99.90;;;;;;5044180;28;20380;-49
2021/06/30 05:34:09;;;;;;;5.00;0.80;;;16.40;99.90;;;;;;5029211;28;20386;-48
2021/06/30 05:36:35;;;;;;;3.85;0.80;;;16.60;99.90;;;;;;5028942;28;20387;-53
2021/06/30 05:39:01;;;;;;;3.10;0.70;;;16.80;99.90;;;;;;5045019;28;20389;-48
2021/06/30 05:41:26;;;;;;;3.30;0.70;;;16.90;99.90;;;;;;5046859;28;20788;-49
2021/06/30 05:43:52;;;;;;;3.60;0.60;;;16.90;99.90;;;;;;5032705;28;20414;-50
2021/06/30 05:46:19;;;;;;;3.80;0.70;;;17.00;99.90;;;;;;5032915;28;20411;-48
2021/06/30 05:48:45;;;;;;;4.10;0.70;;;17.10;99.90;;;;;;5031984;28;20387;-48
2021/06/30 05:51:11;;;;;;;3.65;0.63;;;17.10;99.90;;;;;;5034148;28;20425;-48
2021/06/30 05:53:38;;;;;;;4.20;0.70;;;17.00;99.90;;;;;;5039962;28;20445;-51
2021/06/30 05:56:05;;;;;;;3.30;0.63;;;17.00;99.90;;;;;;5028364;28;20429;-49
2021/06/30 05:58:30;;;;;;;3.30;0.77;;;17.10;99.90;;;;;;5032881;28;20852;-49
2021/06/30 06:00:56;;;;;;;4.60;0.80;;;16.90;99.90;;;;;;5036435;28;20375;-49
2021/06/30 06:03:22;;;;;;;5.97;0.80;;;17.30;99.90;;;;;;5035057;28;20385;-50
2021/06/30 06:05:47;;;;;;;3.90;1.00;;;17.50;99.90;;;;;;5050935;28;20433;-48
2021/06/30 06:08:13;;;;;;;3.77;0.90;;;17.50;99.90;;;;;;5048965;28;20397;-48
2021/06/30 06:10:39;;;;;;;3.20;0.70;;;17.40;99.90;;;;;;5031347;28;20458;-52
2021/06/30 06:13:04;;;;;;;3.42;0.70;;;17.50;99.90;;;;;;5030600;28;20391;-52
2021/06/30 06:15:30;;;;;;;3.20;0.70;;;17.60;99.90;;;;;;5031929;28;20395;-49
2021/06/30 06:17:56;;;;;;;3.30;0.70;;;17.60;99.90;;;;;;5029708;28;20456;-53
2021/06/30 06:20:21;;;;;;;3.40;0.90;;;17.40;99.90;;;;;;5030877;28;20394;-49
2021/06/30 06:22:47;;;;;;;4.10;0.70;;;17.30;99.90;;;;;;5029950;28;20917;-51
2021/06/30 06:25:13;;;;;;;3.80;0.90;;;17.20;99.90;;;;;;5025010;28;20402;-50
2021/06/30 06:27:39;;;;;;;3.25;0.73;;;17.60;99.90;;;;;;5030720;28;20395;-51
2021/06/30 06:30:09;;;;;;;3.42;0.80;;;17.40;99.90;;;;;;5049059;28;20436;-50
2021/06/30 06:32:35;;;;;;;3.60;0.90;;;17.70;99.90;;;;;;5051576;28;20381;-53
2021/06/30 06:35:03;;;;;;;3.80;0.80;;;17.70;99.90;;;;;;5037793;28;20395;-50
2021/06/30 06:37:28;;;;;;;5.20;0.80;;;17.90;99.90;;;;;;5031547;28;20391;-49
2021/06/30 06:39:54;;;;;;;4.50;0.80;;;18.40;99.90;;;;;;5031337;28;20387;-49
2021/06/30 06:42:20;;;;;;;4.03;0.80;;;19.80;99.90;;;;;;5031576;28;20387;-50
2021/06/30 06:44:46;;;;;;;4.00;0.70;;;21.10;99.90;;;;;;5030796;28;20906;-47
2021/06/30 06:47:12;;;;;;;3.65;0.60;;;21.40;99.90;;;;;;5038885;28;20752;-51
2021/06/30 06:49:37;;;;;;;3.60;0.65;;;22.90;99.90;;;;;;5051173;28;20385;-54
2021/06/30 06:52:04;;;;;;;3.70;0.60;;;24.30;99.90;;;;;;5048909;28;21184;-51
2021/06/30 06:54:29;;;;;;;3.70;0.90;;;24.30;99.90;;;;;;5047131;28;20405;-49
2021/06/30 06:56:55;;;;;;;3.90;1.00;;;25.30;99.90;;;;;;5034189;28;20832;-49
2021/06/30 06:59:21;;;;;;;4.80;1.00;;;25.50;99.90;;;;;;5041917;28;20887;-48
2021/06/30 07:01:47;;;;;;;5.47;1.50;;;26.40;99.90;;;;;;5031286;28;20391;-48
2021/06/30 07:04:12;;;;;;;3.70;0.40;;;26.30;99.90;;;;;;5030570;28;20395;-49
2021/06/30 07:06:38;;;;;;;4.50;0.80;;;26.50;99.90;;;;;;5029732;28;20419;-53
2021/06/30 07:09:04;;;;;;;3.70;0.63;;;25.90;99.50;;;;;;5024602;28;20433;-51
2021/06/30 07:11:30;;;;;;;3.70;0.70;;;25.10;99.90;;;;;;5030858;28;20892;-49
2021/06/30 07:13:55;;;;;;;4.00;0.77;;;23.70;99.90;;;;;;5030139;28;20397;-49
2021/06/30 07:16:21;;;;;;;3.95;0.90;;;21.50;99.90;;;;;;5031089;28;20482;-49
2021/06/30 07:18:47;;;;;;;4.50;1.00;;;20.20;99.90;;;;;;5029666;28;20474;-50
2021/06/30 07:21:13;;;;;;;4.85;0.90;;;19.50;99.90;;;;;;5030730;28;20379;-50
2021/06/30 07:23:38;;;;;;;5.00;0.93;;;19.00;99.90;;;;;;5010918;28;20886;-53
2021/06/30 07:26:05;;;;;;;3.77;0.80;;;18.90;99.90;;;;;;5028932;28;20418;-50
2021/06/30 07:28:31;;;;;;;3.80;0.90;;;18.90;99.90;;;;;;5030628;28;20383;-49
2021/06/30 07:30:57;;;;;;;3.70;0.70;;;19.50;99.90;;;;;;5029748;28;20383;-50
2021/06/30 07:33:23;;;;;;;3.97;0.70;;;19.50;99.90;;;;;;5030135;28;20386;-51
2021/06/30 07:35:49;;;;;;;3.63;0.70;;;19.70;99.90;;;;;;5029925;28;20968;-50
2021/06/30 07:38:14;;;;;;;5.17;0.80;;;19.60;99.90;;;;;;5030311;28;20383;-50
2021/06/30 07:40:40;;;;;;;3.63;0.70;;;19.50;99.90;;;;;;5029472;28;20383;-51
2021/06/30 07:43:06;;;;;;;3.70;0.80;;;19.40;99.90;;;;;;5030375;28;20437;-50
2021/06/30 07:45:32;;;;;;;3.90;1.00;;;19.40;99.90;;;;;;5030258;28;20446;-50
2021/06/30 07:47:59;;;;;;;4.70;0.83;;;19.40;99.90;;;;;;5029476;28;20371;-50
2021/06/30 07:50:25;;;;;;;3.60;0.70;;;19.70;99.90;;;;;;5030245;28;20521;-50
2021/06/30 07:52:52;;;;;;;3.90;0.80;;;20.20;99.90;;;;;;5029565;28;20694;-50
2021/06/30 07:55:23;;;;;;;4.10;0.80;;;20.10;99.90;;;;;;5029835;28;20391;-50
2021/06/30 07:57:49;;;;;;;4.10;0.80;;;20.30;99.90;;;;;;5029304;28;20431;-50
2021/06/30 08:00:14;;;;;;;4.70;0.77;;;19.90;99.90;;;;;;5032334;28;20511;-50
2021/06/30 08:02:40;;;;;;;3.50;0.70;;;19.80;99.90;;;;;;5033851;28;20721;-50
2021/06/30 08:05:08;;;;;;;3.40;0.60;;;19.80;99.90;;;;;;5030880;28;20520;-50
2021/06/30 08:07:35;;;;;;;3.63;0.70;;;20.20;99.90;;;;;;5037170;28;20523;-50
2021/06/30 08:10:02;;;;;;;3.90;0.80;;;20.80;99.90;;;;;;5032249;28;20496;-50
2021/06/30 08:12:28;;;;;;;3.97;0.80;;;20.70;99.90;;;;;;5039913;28;20709;-50
2021/06/30 08:14:53;;;;;;;3.80;0.88;;;19.80;99.90;;;;;;5029478;28;20406;-50
2021/06/30 08:17:19;;;;;;;3.80;0.90;;;19.00;99.90;;;;;;5032739;28;20390;-50
2021/06/30 08:19:45;;;;;;;3.63;0.90;;;18.70;99.90;;;;;;5035767;28;20402;-50
2021/06/30 08:22:11;;;;;;;4.60;0.87;;;18.80;99.90;;;;;;5032554;28;20403;-50
2021/06/30 08:24:43;;;;;;;4.60;0.95;;;18.80;99.90;;;;;;5033932;28;20411;-53
2021/06/30 08:27:09;;;;;;;3.80;0.90;;;18.90;99.90;;;;;;5029415;28;20474;-50
2021/06/30 08:29:35;;;;;;;4.47;0.97;;;19.00;99.90;;;;;;5035409;28;20445;-50
2021/06/30 08:32:01;;;;;;;6.28;1.63;;;19.00;99.90;;;;;;5029901;28;20437;-51
2021/06/30 08:34:27;;;;;;;6.00;1.10;;;18.90;99.90;;;;;;5029413;28;20395;-51
2021/06/30 08:36:59;;;;;;;3.92;1.10;;;18.50;99.90;;;;;;5030990;28;20399;-52
2021/06/30 08:39:26;;;;;;;9.82;1.27;;;18.20;99.90;;;;;;5031426;28;20510;-50
2021/06/30 08:41:52;;;;;;;4.10;1.20;;;17.80;99.90;;;;;;5034543;28;20434;-48
2021/06/30 08:44:18;;;;;;;5.10;1.10;;;17.60;99.90;;;;;;5035653;28;20871;-49
2021/06/30 08:46:44;;;;;;;3.63;0.90;;;17.20;99.90;;;;;;5029804;28;20905;-49
2021/06/30 08:49:12;;;;;;;3.30;1.30;;;16.90;99.90;;;;;;5034564;28;20395;-49
2021/06/30 08:51:39;;;;;;;3.50;0.80;;;16.90;99.90;;;;;;5035701;28;20417;-51
2021/06/30 08:54:08;;;;;;;4.25;1.08;;;16.90;99.90;;;;;;5033528;28;20398;-50
2021/06/30 08:56:35;;;;;;;3.90;1.10;;;17.00;99.90;;;;;;5032186;28;20445;-49
2021/06/30 08:59:01;;;;;;;4.15;0.90;;;17.20;99.90;;;;;;5033455;28;21292;-49
2021/06/30 09:01:29;;;;;;;3.40;0.70;;;17.70;99.90;;;;;;5034490;28;20413;-50
2021/06/30 09:03:56;;;;;;;3.70;0.85;;;18.50;99.90;;;;;;5032722;28;20399;-49
2021/06/30 09:06:24;;;;;;;3.30;0.70;;;19.50;99.90;;;;;;5029139;28;20509;-50
2021/06/30 09:08:49;;;;;;;3.38;0.68;;;20.30;99.90;;;;;;5028559;28;20948;-50
2021/06/30 09:11:20;;;;;;;4.10;0.80;;;20.80;99.90;;;;;;5029209;28;20474;-50
2021/06/30 09:13:47;;;;;;;5.30;0.85;;;21.10;99.90;;;;;;5032389;28;20908;-50
2021/06/30 09:16:12;;;;;;;4.60;0.90;;;21.80;99.90;;;;;;5040501;28;20401;-53
2021/06/30 09:18:42;;;;;;;3.70;0.80;;;22.40;99.90;;;;;;5038165;28;20482;-50
2021/06/30 09:21:20;;;;;;;3.95;0.70;;;21.80;99.90;;;;;;5033413;28;20395;-50
2021/06/30 09:24:01;;;;;;;4.00;0.90;;;21.00;99.90;;;;;;5030738;28;20401;-49
2021/06/30 09:26:28;;;;;;;3.93;0.80;;;20.60;99.90;;;;;;5038561;28;20409;-51
2021/06/30 09:29:08;;;;;;;3.90;1.10;;;20.30;99.90;;;;;;5035687;28;20497;-52
2021/06/30 09:31:36;;;;;;;3.50;0.80;;;20.10;99.90;;;;;;5039029;28;20401;-50
2021/06/30 09:34:02;;;;;;;4.05;1.00;;;20.30;99.90;;;;;;5037379;28;21092;-48
2021/06/30 09:36:33;;;;;;;3.80;0.70;;;21.10;99.90;;;;;;5037075;28;20900;-50
2021/06/30 09:39:13;;;;;;;3.60;0.80;;;21.80;99.90;;;;;;5038576;28;20423;-50
2021/06/30 09:41:43;;;;;;;4.70;1.10;;;22.50;99.90;;;;;;5036755;28;20394;-48
2021/06/30 09:44:13;;;;;;;6.05;0.63;;;22.30;99.90;;;;;;5032372;28;20385;-49
2021/06/30 09:46:41;;;;;;;3.50;0.70;;;22.10;99.90;;;;;;5032755;28;20754;-49
2021/06/30 09:49:10;;;;;;;3.40;0.60;;;21.80;99.90;;;;;;5031896;28;20426;-48
2021/06/30 09:51:36;;;;;;;3.40;0.70;;;21.40;99.90;;;;;;5032898;28;20391;-48
2021/06/30 09:54:07;;;;;;;3.60;0.60;;;22.10;99.90;;;;;;5031273;28;21014;-49
2021/06/30 09:56:35;;;;;;;4.20;0.70;;;21.80;99.90;;;;;;5032206;28;20375;-49
2021/06/30 09:59:18;;;;;;;3.40;0.60;;;21.60;99.90;;;;;;5025199;28;20476;-49
2021/06/30 10:01:51;;;;;;;3.50;0.70;;;21.10;99.90;;;;;;5035289;28;20770;-53
2021/06/30 10:04:35;;;;;;;3.40;0.60;;;21.00;99.90;;;;;;5032465;28;20391;-50
2021/06/30 10:07:12;;;;;;;3.72;0.80;;;20.60;99.90;;;;;;5030108;28;20411;-50
2021/06/30 10:09:40;;;;;;;4.10;0.80;;;20.10;99.90;;;;;;5032292;28;20426;-50
2021/06/30 10:12:12;;;;;;;5.82;0.85;;;19.20;99.90;;;;;;5031850;28;20379;-52
2021/06/30 10:14:42;;;;;;;4.90;0.80;;;19.00;99.90;;;;;;5029634;28;20480;-50
2021/06/30 10:17:10;;;;;;;3.58;0.75;;;19.40;99.90;;;;;;5031723;28;20432;-50
2021/06/30 10:19:38;;;;;;;4.20;0.88;;;19.80;99.90;;;;;;5033562;28;20477;-50
2021/06/30 10:22:09;;;;;;;4.80;0.90;;;20.80;99.90;;;;;;5036948;28;20912;-51
2021/06/30 10:24:36;;;;;;;3.90;0.80;;;22.20;99.90;;;;;;5031872;28;20850;-50
2021/06/30 10:27:03;;;;;;;4.90;0.70;;;22.80;99.90;;;;;;5030512;28;20459;-50
2021/06/30 10:29:31;;;;;;;4.40;0.80;;;23.00;99.90;;;;;;5035302;28;20406;-50
2021/06/30 10:31:59;;;;;;;3.60;0.70;;;23.00;99.90;;;;;;5031546;28;20745;-49
2021/06/30 10:34:46;;;;;;;3.97;0.75;;;22.90;99.90;;;;;;5041954;28;20401;-49
2021/06/30 10:37:25;;;;;;;3.70;0.70;;;22.60;99.90;;;;;;5038398;28;20399;-50
2021/06/30 10:39:55;;;;;;;3.80;0.80;;;22.30;99.90;;;;;;5035866;28;20402;-50
2021/06/30 10:42:36;;;;;;;4.00;0.90;;;22.40;99.90;;;;;;5031125;28;20465;-50
2021/06/30 10:45:23;;;;;;;4.10;1.00;;;21.70;99.90;;;;;;5030854;28;20701;-51
2021/06/30 10:47:55;;;;;;;3.70;0.70;;;21.30;99.90;;;;;;5030628;28;20376;-50
2021/06/30 10:50:25;;;;;;;5.17;0.90;;;20.80;99.90;;;;;;5031384;28;20914;-50
2021/06/30 10:52:53;;;;;;;3.80;0.98;;;20.40;99.90;;;;;;5030706;28;20394;-50
2021/06/30 10:55:53;;;;;;;3.70;0.80;;;20.20;99.90;;;;;;5031203;28;20399;-51
2021/06/30 10:58:21;;;;;;;3.70;0.70;;;20.40;99.90;;;;;;5026048;28;20470;-51
2021/06/30 11:00:51;;;;;;;3.88;0.88;;;20.50;99.90;;;;;;5028920;28;20885;-50
2021/06/30 11:03:26;;;;;;;4.10;0.80;;;21.10;99.90;;;;;;5031385;28;20413;-50
2021/06/30 11:06:19;;;;;;;3.60;0.80;;;20.70;99.90;;;;;;5030158;28;20504;-50
2021/06/30 11:08:56;;;;;;;4.10;1.00;;;20.70;99.90;;;;;;5030523;28;20749;-53
2021/06/30 11:11:29;;;;;;;4.10;1.00;;;20.70;99.90;;;;;;5031281;28;20391;-51
2021/06/30 11:13:54;;;;;;;3.80;0.90;;;20.60;99.90;;;;;;5030081;28;20452;-51
2021/06/30 11:16:43;;;;;;;3.60;0.80;;;20.50;99.90;;;;;;5031010;28;20395;-50
2021/06/30 11:19:15;;;;;;;6.80;0.90;;;20.80;99.90;;;;;;5030435;28;20383;-50
2021/06/30 11:21:52;;;;;;;3.50;0.73;;;21.30;99.90;;;;;;5030973;28;20387;-50
2021/06/30 11:24:34;;;;;;;3.90;0.90;;;21.30;99.90;;;;;;5030520;28;20873;-50
2021/06/30 11:27:24;;;;;;;4.27;0.80;;;21.00;99.90;;;;;;5030042;28;20442;-51
2021/06/30 11:30:28;;;;;;;3.70;0.80;;;20.80;99.90;;;;;;5023011;28;20391;-50
2021/06/30 11:32:54;;;;;;;7.05;1.30;;;20.10;99.90;;;;;;5025407;28;20482;-51
2021/06/30 11:35:26;;;;;;;4.43;1.00;;;20.20;99.90;;;;;;5030324;28;20435;-51
2021/06/30 11:38:13;;;;;;;3.60;0.80;;;20.40;99.90;;;;;;5028771;28;20392;-50
2021/06/30 11:40:59;;;;;;;5.30;1.10;;;20.30;99.90;;;;;;5030847;28;20387;-50
2021/06/30 11:43:28;;;;;;;4.90;0.80;;;20.40;99.90;;;;;;5030486;28;20398;-51
2021/06/30 11:45:57;;;;;;;4.13;1.00;;;20.50;99.90;;;;;;5030235;28;20412;-52
2021/06/30 11:48:24;;;;;;;3.63;0.73;;;20.30;99.90;;;;;;5041743;28;20488;-50
2021/06/30 11:50:54;;;;;;;4.55;1.50;;;20.30;99.90;;;;;;5036527;28;20862;-50
2021/06/30 11:53:35;;;;;;;4.80;1.20;;;20.50;99.90;;;;;;5035881;28;20382;-50
2021/06/30 11:56:02;;;;;;;4.60;0.90;;;20.40;99.90;;;;;;5031962;28;20514;-51
2021/06/30 11:58:54;;;;;;;4.90;1.00;;;20.60;99.90;;;;;;5038279;28;20479;-50
2021/06/30 12:01:30;;;;;;;5.18;1.02;;;20.70;99.90;;;;;;5027830;28;20888;-50
2021/06/30 12:04:07;;;;;;;6.13;1.25;;;20.50;99.90;;;;;;5028130;28;20865;-50
2021/06/30 12:06:33;;;;;;;4.20;1.00;;;20.50;99.90;;;;;;5031627;28;20553;-50
2021/06/30 12:09:11;;;;;;;4.20;1.00;;;20.70;99.90;;;;;;5036108;28;20400;-51
2021/06/30 12:11:39;;;;;;;5.40;1.30;;;20.20;99.90;;;;;;5036421;28;20397;-49
2021/06/30 12:14:12;;;;;;;3.80;0.80;;;20.70;99.90;;;;;;5036683;28;20478;-50
2021/06/30 12:16:40;;;;;;;3.70;0.90;;;21.00;99.90;;;;;;5034057;28;20389;-49
2021/06/30 12:19:10;;;;;;;6.00;0.80;;;21.10;99.90;;;;;;5032405;28;20391;-50
2021/06/30 12:21:38;;;;;;;4.30;0.85;;;21.00;99.90;;;;;;5032444;28;20509;-50
2021/06/30 12:24:15;;;;;;;3.60;0.80;;;20.60;99.90;;;;;;5031255;28;20466;-50
2021/06/30 12:27:02;;;;;;;4.68;1.00;;;20.60;99.90;;;;;;5032484;28;20415;-50
2021/06/30 12:29:28;;;;;;;3.60;0.80;;;20.60;99.90;;;;;;5032933;28;20389;-50
2021/06/30 12:31:55;;;;;;;4.43;0.90;;;20.50;99.90;;;;;;5033072;28;20397;-50
2021/06/30 12:34:21;;;;;;;4.28;1.20;;;20.40;99.90;;;;;;5035041;28;20617;-49
2021/06/30 12:36:46;;;;;;;4.60;1.20;;;20.40;99.90;;;;;;5033617;28;20413;-53
2021/06/30 12:39:24;;;;;;;3.67;0.90;;;20.50;99.90;;;;;;5032141;28;20395;-52
2021/06/30 12:42:02;;;;;;;3.50;0.90;;;20.30;99.90;;;;;;5032147;28;20402;-49
2021/06/30 12:44:30;;;;;;;4.30;0.80;;;19.90;99.90;;;;;;5032508;28;20502;-49
2021/06/30 12:47:12;;;;;;;3.60;0.90;;;19.60;99.90;;;;;;5031529;28;20403;-49
2021/06/30 12:49:40;;;;;;;3.63;0.80;;;19.40;99.90;;;;;;5035578;28;20741;-49
2021/06/30 12:52:18;;;;;;;3.70;0.80;;;19.60;99.90;;;;;;5033225;28;20379;-51